Time;durP1;ratioP1;P1;durP2;ratioP2;P2;SDS_P1;SDS_P2;PMS_P1;PMS_P2;Temp;Humidity;BMP_temperature;BMP_pressure;BME280_temperature;BME280_humidity;BME280_pressure;Samples;Min_cycle;Max_cycle;Signal;HPM_P1;HPM_P2
2021/01/04 00:00:32;;;;;;;7.03;5.82;;;;;;;5.01;66.84;100124.91;5014083;28;20487;-67
2021/01/04 00:03:30;;;;;;;6.13;5.30;;;;;;;4.99;66.46;100118.84;5012999;28;20053;-67
2021/01/04 00:06:18;;;;;;;6.80;6.03;;;;;;;4.95;66.98;100126.06;4995798;28;20057;-67
2021/01/04 00:08:55;;;;;;;6.18;5.57;;;;;;;4.96;66.53;100121.38;4997813;28;20057;-67
2021/01/04 00:11:39;;;;;;;7.20;6.35;;;;;;;4.95;67.17;100119.72;5012747;28;20049;-67
2021/01/04 00:14:14;;;;;;;6.70;6.00;;;;;;;4.92;67.16;100123.06;5012536;28;20049;-67
2021/01/04 00:16:48;;;;;;;7.05;5.90;;;;;;;4.92;67.00;100123.06;5012708;28;20054;-67
2021/01/04 00:19:20;;;;;;;7.75;5.80;;;;;;;4.91;66.63;100115.88;5012720;28;20317;-67
2021/01/04 00:21:56;;;;;;;6.97;6.13;;;;;;;4.91;66.94;100130.50;5012907;28;20070;-67
2021/01/04 00:24:30;;;;;;;6.53;5.78;;;;;;;4.86;66.55;100125.84;5011968;28;20050;-67
2021/01/04 00:27:04;;;;;;;6.18;5.47;;;;;;;4.87;67.01;100130.25;5012552;28;20440;-67
2021/01/04 00:29:31;;;;;;;6.90;6.18;;;;;;;4.86;67.09;100122.25;5012433;28;20054;-67
2021/01/04 00:32:08;;;;;;;7.43;6.25;;;;;;;4.89;66.98;100118.91;5012756;28;20057;-67
2021/01/04 00:34:43;;;;;;;7.07;6.38;;;;;;;4.86;67.21;100123.06;5013792;28;20423;-68
2021/01/04 00:37:35;;;;;;;7.10;6.40;;;;;;;4.91;66.95;100115.88;5016385;28;20049;-67
2021/01/04 00:40:06;;;;;;;6.75;6.05;;;;;;;4.90;66.41;100117.00;5016136;28;20061;-66
2021/01/04 00:42:37;;;;;;;6.60;5.90;;;;;;;4.88;66.82;100120.03;5015866;28;20050;-66
2021/01/04 00:45:12;;;;;;;7.15;6.38;;;;;;;4.88;67.13;100120.84;5015773;28;20054;-66
2021/01/04 00:47:53;;;;;;;7.55;6.50;;;;;;;4.86;67.39;100123.06;5015771;28;20065;-66
2021/01/04 00:50:25;;;;;;;8.00;6.63;;;;;;;4.87;67.25;100121.13;5016295;28;20054;-66
2021/01/04 00:52:57;;;;;;;6.93;6.22;;;;;;;4.86;67.29;100128.59;5016110;28;20065;-66
2021/01/04 00:55:37;;;;;;;7.30;6.35;;;;;;;4.88;67.54;100123.63;5016118;28;20072;-66
2021/01/04 00:58:43;;;;;;;7.57;6.28;;;;;;;4.91;67.07;100127.72;5016122;28;20085;-66
2021/01/04 01:01:13;;;;;;;6.35;5.65;;;;;;;4.91;67.07;100124.16;4998636;28;20054;-68
2021/01/04 01:03:54;;;;;;;6.75;5.80;;;;;;;4.91;67.27;100119.44;5015469;28;20157;-67
2021/01/04 01:06:27;;;;;;;7.80;6.32;;;;;;;4.90;67.25;100125.28;5015827;28;20054;-67
2021/01/04 01:08:55;;;;;;;7.00;6.30;;;;;;;4.93;67.14;100121.94;5015752;28;20406;-67
2021/01/04 01:12:10;;;;;;;7.25;6.35;;;;;;;4.90;67.37;100128.84;5015469;28;20049;-67
2021/01/04 01:14:43;;;;;;;7.22;5.85;;;;;;;4.88;67.29;100126.38;4960354;28;20054;-67
2021/01/04 01:17:49;;;;;;;6.95;6.15;;;;;;;4.92;66.95;100125.81;4995942;28;20400;-67
2021/01/04 01:20:18;;;;;;;8.27;7.00;;;;;;;4.87;66.98;100133.03;4996246;28;20055;-67
2021/01/04 01:22:48;;;;;;;7.43;6.63;;;;;;;4.90;67.23;100133.56;5004811;28;20399;-67
2021/01/04 01:25:17;;;;;;;7.75;6.78;;;;;;;4.91;67.62;100137.97;5015013;28;20406;-67
2021/01/04 01:28:21;;;;;;;7.13;6.20;;;;;;;4.90;67.20;100134.38;5015638;28;20045;-67
2021/01/04 01:30:58;;;;;;;7.43;6.63;;;;;;;4.89;67.49;100129.94;5015587;28;20414;-67
2021/01/04 01:33:52;;;;;;;8.05;6.97;;;;;;;4.88;67.41;100134.66;5015401;28;22072;-67
2021/01/04 01:36:28;;;;;;;7.65;6.85;;;;;;;4.86;67.03;100133.28;4935427;29;20071;-67
2021/01/04 01:39:37;;;;;;;8.27;7.13;;;;;;;4.87;67.03;100135.78;5004167;28;20064;-67
2021/01/04 01:42:26;;;;;;;7.68;6.80;;;;;;;4.86;67.29;100134.13;4968543;28;20414;-67
2021/01/04 01:44:59;;;;;;;7.65;6.63;;;;;;;4.86;67.08;100139.63;5015620;28;20058;-67
2021/01/04 01:47:34;;;;;;;8.50;7.32;;;;;;;4.86;66.85;100139.63;5014243;28;20057;-67
2021/01/04 01:50:07;;;;;;;8.13;7.03;;;;;;;4.82;67.30;100141.31;5015022;28;20058;-67
2021/01/04 01:52:47;;;;;;;8.23;7.22;;;;;;;4.82;67.19;100146.81;5015010;28;20053;-67
2021/01/04 01:55:31;;;;;;;;;;;;;;;4.81;67.51;100147.13;4996095;28;20050;-67
2021/01/04 01:58:37;;;;;;;7.88;6.97;;;;;;;4.77;67.60;100146.88;4994983;28;19929;-67
2021/01/04 02:01:11;;;;;;;7.72;6.93;;;;;;;4.78;67.48;100137.47;4990738;28;20066;-67
2021/01/04 02:03:47;;;;;;;8.00;7.20;;;;;;;4.81;67.50;100147.13;4995510;28;20062;-67
2021/01/04 02:06:43;;;;;;;7.88;7.00;;;;;;;4.80;66.93;100145.47;4995808;28;20050;-67
2021/01/04 02:09:13;;;;;;;7.88;6.97;;;;;;;4.79;67.35;100147.41;4996252;28;20052;-67
2021/01/04 02:11:48;;;;;;;;;;;;;;;4.77;67.46;100151.56;5015088;28;20399;-67
2021/01/04 02:14:19;;;;;;;7.70;6.28;;;;;;;4.74;67.86;100146.59;5014358;28;19921;-67
2021/01/04 02:17:08;;;;;;;7.80;6.63;;;;;;;4.77;67.70;100148.81;5013815;28;20053;-67
2021/01/04 02:20:09;;;;;;;7.60;6.13;;;;;;;4.78;67.75;100150.44;5015166;28;20049;-67
2021/01/04 02:23:00;;;;;;;7.80;7.00;;;;;;;4.76;67.60;100147.97;5015199;28;20049;-67
2021/01/04 02:25:30;;;;;;;7.80;6.88;;;;;;;4.79;67.64;100143.84;5014531;28;20061;-67
2021/01/04 02:28:00;;;;;;;7.05;6.22;;;;;;;4.77;67.82;100148.81;5014748;28;20050;-67
2021/01/04 02:30:27;;;;;;;7.63;6.38;;;;;;;4.75;67.27;100149.09;5014212;28;20057;-67
2021/01/04 02:32:54;;;;;;;7.65;6.85;;;;;;;4.76;67.63;100150.72;5014386;28;20395;-67
2021/01/04 02:35:23;;;;;;;7.88;6.95;;;;;;;4.78;67.75;100144.94;5014594;28;20065;-67
2021/01/04 02:37:51;;;;;;;7.55;6.63;;;;;;;4.76;67.58;100149.91;5014655;28;20060;-67
2021/01/04 02:40:18;;;;;;;8.02;6.68;;;;;;;4.76;68.15;100149.91;5013878;28;20057;-67
2021/01/04 02:42:47;;;;;;;7.10;6.35;;;;;;;4.74;67.56;100152.94;5014076;28;20054;-67
2021/01/04 02:45:21;;;;;;;7.30;6.43;;;;;;;4.75;67.80;100149.09;5013945;28;20072;-67
2021/01/04 02:48:15;;;;;;;8.45;6.88;;;;;;;4.75;67.62;100149.09;5014026;28;20065;-66
2021/01/04 02:50:51;;;;;;;7.57;6.63;;;;;;;4.68;67.39;100148.56;5014166;28;20056;-67
2021/01/04 02:53:34;;;;;;;8.20;6.68;;;;;;;4.70;67.55;100148.28;5013729;28;20415;-66
2021/01/04 02:56:21;;;;;;;8.20;6.75;;;;;;;4.67;67.76;100144.16;5013935;28;20049;-66
2021/01/04 02:59:10;;;;;;;8.82;6.90;;;;;;;4.66;67.99;100143.34;5013541;28;20376;-67
2021/01/04 03:01:41;;;;;;;8.23;7.15;;;;;;;4.62;67.93;100153.28;5014124;28;20057;-66
2021/01/04 03:04:10;;;;;;;8.13;6.85;;;;;;;4.62;68.29;100144.16;5014231;28;20054;-66
2021/01/04 03:06:42;;;;;;;8.45;7.50;;;;;;;4.64;67.98;100156.59;5013966;28;20053;-66
2021/01/04 03:09:12;;;;;;;8.30;6.97;;;;;;;4.65;67.99;100143.63;5007145;28;20049;-67
2021/01/04 03:11:40;;;;;;;8.43;6.90;;;;;;;4.63;67.75;100145.81;5013472;28;20064;-67
2021/01/04 03:14:22;;;;;;;9.15;7.60;;;;;;;4.64;67.46;100151.06;5014164;28;20466;-67
2021/01/04 03:16:56;;;;;;;9.02;7.55;;;;;;;4.61;68.63;100153.56;5013658;28;20058;-67
2021/01/04 03:19:26;;;;;;;8.05;7.25;;;;;;;4.64;67.69;100158.50;5013669;28;20054;-67
2021/01/04 03:22:00;;;;;;;8.23;7.13;;;;;;;4.63;68.30;100148.59;5013541;28;20054;-67
2021/01/04 03:24:27;;;;;;;9.07;7.57;;;;;;;4.65;67.70;100149.13;5013786;28;20058;-67
2021/01/04 03:26:57;;;;;;;9.02;7.57;;;;;;;4.63;68.08;100143.88;5012967;28;20050;-66
2021/01/04 03:29:28;;;;;;;8.65;7.22;;;;;;;4.62;68.09;100152.44;5013686;28;20050;-67
2021/01/04 03:31:56;;;;;;;9.05;7.78;;;;;;;4.63;68.00;100148.59;5013441;28;20487;-66
2021/01/04 03:34:22;;;;;;;8.88;7.65;;;;;;;4.60;67.81;100149.13;5013018;28;20058;-66
2021/01/04 03:36:51;;;;;;;8.10;7.25;;;;;;;4.60;68.43;100157.41;5012998;28;20058;-66
2021/01/04 03:39:18;;;;;;;9.03;7.70;;;;;;;4.59;68.39;100153.00;5012912;28;20073;-66
2021/01/04 03:41:47;;;;;;;8.40;7.50;;;;;;;4.55;68.67;100150.00;5013165;28;20046;-66
2021/01/04 03:44:17;;;;;;;8.80;7.75;;;;;;;4.58;68.49;100152.19;5013490;28;20062;-67
2021/01/04 03:46:49;;;;;;;9.27;8.07;;;;;;;4.55;68.41;100152.75;5014009;28;20052;-65
2021/01/04 03:49:16;;;;;;;8.90;7.78;;;;;;;4.54;68.41;100150.28;5013646;28;20057;-67
2021/01/04 03:51:49;;;;;;;8.15;7.07;;;;;;;4.56;67.66;100150.84;5013415;28;20065;-66
2021/01/04 03:54:16;;;;;;;8.95;7.38;;;;;;;4.56;67.79;100151.66;5012703;28;20069;-66
2021/01/04 03:56:46;;;;;;;9.10;8.00;;;;;;;4.56;68.00;100150.84;5013464;28;20057;-66
2021/01/04 03:59:14;;;;;;;9.73;8.00;;;;;;;4.54;68.52;100147.53;5012923;28;20495;-66
2021/01/04 04:01:46;;;;;;;8.95;7.90;;;;;;;4.50;68.63;100149.22;5013075;28;20499;-66
2021/01/04 04:04:16;;;;;;;9.32;7.47;;;;;;;4.52;68.34;100149.75;5013136;28;20398;-65
2021/01/04 04:06:46;;;;;;;8.75;7.72;;;;;;;4.53;68.30;100156.91;5012476;28;20491;-65
2021/01/04 04:09:14;;;;;;;8.25;7.45;;;;;;;4.53;67.73;100157.72;5006913;28;20061;-65
2021/01/04 04:11:41;;;;;;;9.35;7.97;;;;;;;4.55;68.10;100155.50;5016841;28;20057;-65
2021/01/04 04:14:08;;;;;;;8.75;7.40;;;;;;;4.57;67.77;100158.81;5017277;28;20057;-65
2021/01/04 04:16:36;;;;;;;9.07;7.25;;;;;;;4.60;68.13;100157.41;5016787;28;20049;-65
2021/01/04 04:19:04;;;;;;;9.18;7.97;;;;;;;4.61;68.19;100156.31;5016797;28;20050;-65
2021/01/04 04:21:32;;;;;;;9.30;8.27;;;;;;;4.54;67.47;100151.13;5016656;28;20054;-65
2021/01/04 04:23:59;;;;;;;9.10;7.72;;;;;;;4.52;67.79;100160.78;5015766;28;20510;-65
2021/01/04 04:26:30;;;;;;;8.73;7.82;;;;;;;4.55;68.01;100154.69;5016421;28;20056;-65
2021/01/04 04:28:57;;;;;;;9.52;7.97;;;;;;;4.55;68.50;100162.97;5017077;28;20402;-65
2021/01/04 04:31:24;;;;;;;8.48;7.57;;;;;;;4.57;68.23;100163.50;5016517;28;20050;-65
2021/01/04 04:33:53;;;;;;;9.07;8.13;;;;;;;4.59;67.97;100161.28;5016414;28;20514;-65
2021/01/04 04:36:22;;;;;;;8.63;7.60;;;;;;;4.57;67.83;100166.25;5016334;28;20065;-65
2021/01/04 04:38:51;;;;;;;10.70;8.45;;;;;;;4.53;68.03;100168.75;5016696;28;20399;-65
2021/01/04 04:41:24;;;;;;;11.57;8.68;;;;;;;4.56;68.24;100175.66;5015560;28;20057;-65
2021/01/04 04:43:52;;;;;;;9.15;7.80;;;;;;;4.58;68.36;100171.50;5016524;28;20510;-65
2021/01/04 04:46:27;;;;;;;10.27;8.68;;;;;;;4.60;68.44;100179.47;5016914;28;20060;-65
2021/01/04 04:48:56;;;;;;;9.93;8.20;;;;;;;4.60;68.84;100185.84;5016209;28;20050;-66
2021/01/04 04:51:32;;;;;;;10.18;8.38;;;;;;;4.61;68.52;100173.69;5016388;28;20057;-66
2021/01/04 04:54:26;;;;;;;9.45;8.45;;;;;;;4.63;68.07;100178.94;5015576;28;20046;-66
2021/01/04 04:57:20;;;;;;;11.57;9.13;;;;;;;4.60;67.79;100176.72;5016431;28;20054;-66
2021/01/04 04:59:59;;;;;;;12.82;9.52;;;;;;;4.61;68.22;100175.63;5016405;28;20054;-66
2021/01/04 05:02:31;;;;;;;11.23;9.48;;;;;;;4.61;67.64;100181.16;5016189;28;20050;-65
2021/01/04 05:05:17;;;;;;;13.18;9.88;;;;;;;4.59;67.54;100177.84;5016613;28;20054;-66
2021/01/04 05:07:53;;;;;;;11.30;9.75;;;;;;;4.55;68.29;100172.06;5015833;28;20069;-65
2021/01/04 05:10:22;;;;;;;11.32;9.65;;;;;;;4.59;68.19;100172.31;5015309;28;20085;-65
2021/01/04 05:13:00;;;;;;;12.20;9.95;;;;;;;4.59;68.42;100180.59;5015452;28;20050;-65
2021/01/04 05:15:35;;;;;;;10.90;9.25;;;;;;;4.62;68.82;100172.59;5015648;28;20054;-65
2021/01/04 05:18:15;;;;;;;9.85;8.57;;;;;;;4.64;68.23;100180.56;5015436;28;20057;-65
2021/01/04 05:21:15;;;;;;;10.60;9.18;;;;;;;4.62;67.59;100171.75;5015418;28;20049;-65
2021/01/04 05:23:47;;;;;;;;;;;;;;;4.61;68.06;100167.34;4990724;28;20467;-65
2021/01/04 05:26:50;;;;;;;12.00;9.98;;;;;;;4.60;67.96;100176.72;5015741;28;19948;-65
2021/01/04 05:29:33;;;;;;;11.25;9.18;;;;;;;4.64;68.21;100180.56;5015832;28;20053;-65
2021/01/04 05:32:39;;;;;;;10.50;9.05;;;;;;;4.64;68.51;100186.94;5015388;28;20062;-65
2021/01/04 05:35:09;;;;;;;11.18;9.13;;;;;;;4.65;68.08;100176.72;5015179;28;20499;-65
2021/01/04 05:37:45;;;;;;;10.25;9.15;;;;;;;4.68;68.22;100176.13;5015181;28;20499;-65
2021/01/04 05:40:31;;;;;;;9.98;8.70;;;;;;;4.68;67.91;100171.47;5014773;28;20049;-65
2021/01/04 05:43:13;;;;;;;10.52;8.43;;;;;;;4.67;67.86;100177.25;4999304;28;20065;-66
2021/01/04 05:45:49;;;;;;;9.75;8.65;;;;;;;4.66;67.47;100170.06;4995821;28;20431;-65
2021/01/04 05:48:38;;;;;;;10.18;8.60;;;;;;;4.61;67.65;100181.16;4995931;28;20058;-65
2021/01/04 05:51:09;;;;;;;10.48;8.75;;;;;;;4.61;68.07;100179.22;4982947;28;20058;-65
2021/01/04 05:53:37;;;;;;;10.65;8.32;;;;;;;4.61;67.72;100183.91;4995035;28;20050;-65
2021/01/04 05:56:04;;;;;;;10.98;8.85;;;;;;;4.63;68.01;100190.78;4995282;28;20408;-65
2021/01/04 05:58:32;;;;;;;9.68;8.65;;;;;;;4.66;67.98;100186.63;5001280;28;20415;-65
2021/01/04 06:01:08;;;;;;;12.02;9.32;;;;;;;4.63;68.39;100196.31;5014858;28;20050;-65
2021/01/04 06:03:35;;;;;;;10.73;8.50;;;;;;;4.62;68.00;100191.06;5014500;28;20054;-65
2021/01/04 06:06:09;;;;;;;10.02;8.57;;;;;;;4.63;68.04;100189.97;5015027;28;20057;-65
2021/01/04 06:08:36;;;;;;;10.70;9.02;;;;;;;4.59;68.38;100194.41;4999011;28;20069;-65
2021/01/04 06:11:09;;;;;;;11.07;8.75;;;;;;;4.60;68.49;100198.78;4995068;28;20054;-65
2021/01/04 06:13:38;;;;;;;10.13;8.57;;;;;;;4.61;68.16;100197.69;5003254;28;20410;-65
2021/01/04 06:16:10;;;;;;;11.02;9.30;;;;;;;4.63;68.24;100195.47;5012400;28;20050;-66
2021/01/04 06:18:44;;;;;;;9.65;8.38;;;;;;;4.60;68.03;100198.78;5013813;28;20049;-65
2021/01/04 06:21:25;;;;;;;11.20;9.23;;;;;;;4.58;68.23;100198.28;5014310;28;20050;-65
2021/01/04 06:23:53;;;;;;;11.48;9.60;;;;;;;4.56;67.81;100197.72;5004963;28;20126;-65
2021/01/04 06:26:21;;;;;;;11.98;9.45;;;;;;;4.54;68.34;100197.19;5014323;28;20049;-65
2021/01/04 06:28:53;;;;;;;11.13;9.52;;;;;;;4.48;68.27;100201.88;5014075;28;20053;-65
2021/01/04 06:31:35;;;;;;;10.75;9.35;;;;;;;4.52;68.30;100207.66;5014557;28;20510;-65
2021/01/04 06:34:04;;;;;;;10.65;9.20;;;;;;;4.53;67.83;100206.53;5013856;28;20476;-65
2021/01/04 06:36:35;;;;;;;10.95;9.57;;;;;;;4.56;68.53;100214.28;5014052;28;20053;-65
2021/01/04 06:39:11;;;;;;;11.40;9.80;;;;;;;4.53;68.37;100214.81;5014071;28;20048;-65
2021/01/04 06:41:38;;;;;;;11.10;9.80;;;;;;;4.54;68.46;100213.72;5014123;28;20054;-65
2021/01/04 06:44:18;;;;;;;12.23;10.35;;;;;;;4.56;68.54;100217.03;5014481;28;20046;-64
2021/01/04 06:47:01;;;;;;;11.10;9.43;;;;;;;4.56;68.20;100217.03;5002125;28;20049;-65
2021/01/04 06:49:30;;;;;;;11.10;9.45;;;;;;;4.53;68.02;100217.59;5013807;28;20065;-65
2021/01/04 06:52:24;;;;;;;11.15;9.00;;;;;;;4.51;68.09;100219.78;5012282;28;20050;-65
2021/01/04 06:55:18;;;;;;;13.07;9.48;;;;;;;4.46;67.79;100215.94;4971769;28;20054;-65
2021/01/04 06:58:27;;;;;;;12.20;10.07;;;;;;;4.45;69.17;100216.22;5009419;28;20057;-65
2021/01/04 07:01:18;;;;;;;11.93;9.27;;;;;;;4.45;69.08;100227.25;4979881;28;20050;-65
2021/01/04 07:04:04;;;;;;;12.18;9.98;;;;;;;4.47;68.94;100227.78;5003889;28;20364;-65
2021/01/04 07:07:06;;;;;;;10.75;9.13;;;;;;;4.47;69.07;100225.88;5013761;28;20061;-65
2021/01/04 07:09:53;;;;;;;11.65;9.75;;;;;;;4.49;68.84;100233.84;5011475;28;20050;-65
2021/01/04 07:12:25;;;;;;;11.48;9.48;;;;;;;4.47;68.34;100230.53;5010198;28;20049;-65
2021/01/04 07:15:04;;;;;;;11.85;9.15;;;;;;;4.49;68.34;100242.13;5005110;28;20052;-65
2021/01/04 07:17:55;;;;;;;10.57;9.27;;;;;;;4.48;68.50;100246.81;5013881;28;20061;-65
2021/01/04 07:20:43;;;;;;;10.43;9.13;;;;;;;4.50;68.27;100245.72;5006470;28;20060;-65
2021/01/04 07:23:30;;;;;;;10.45;8.98;;;;;;;4.50;68.33;100248.50;5012389;28;20498;-65
2021/01/04 07:26:00;;;;;;;10.13;9.02;;;;;;;4.49;68.07;100244.88;4999459;28;20042;-65
2021/01/04 07:28:39;;;;;;;9.50;8.30;;;;;;;4.54;68.06;100263.38;5013182;28;20062;-65
2021/01/04 07:31:08;;;;;;;11.10;9.13;;;;;;;4.50;67.84;100260.34;5008922;28;20042;-65
2021/01/04 07:33:40;;;;;;;11.20;9.40;;;;;;;4.53;68.04;100256.19;5012828;28;20046;-65
2021/01/04 07:36:13;;;;;;;11.23;9.20;;;;;;;4.56;68.40;100255.66;5012740;28;20049;-65
2021/01/04 07:38:50;;;;;;;10.50;8.65;;;;;;;4.58;68.00;100262.53;5011423;28;20050;-65
2021/01/04 07:41:34;;;;;;;11.48;9.43;;;;;;;4.62;68.28;100262.78;5008880;28;20426;-65
2021/01/04 07:44:43;;;;;;;11.50;9.25;;;;;;;4.62;68.31;100268.28;5027925;28;20414;-65
2021/01/04 07:47:27;;;;;;;11.63;9.30;;;;;;;4.59;68.03;100268.88;5022296;28;20407;-64
2021/01/04 07:50:34;;;;;;;12.20;8.82;;;;;;;4.62;67.96;100266.38;5014992;28;20064;-64
2021/01/04 07:53:26;;;;;;;11.43;8.90;;;;;;;4.68;68.16;100268.03;5031803;28;20053;-64
2021/01/04 07:56:29;;;;;;;10.85;9.38;;;;;;;4.75;67.64;100264.97;5032718;28;20068;-64
2021/01/04 07:59:26;;;;;;;9.35;8.05;;;;;;;4.78;67.36;100264.38;4999603;28;20060;-64
2021/01/04 08:02:24;;;;;;;11.55;9.25;;;;;;;4.81;67.68;100269.38;5012814;28;20057;-64
2021/01/04 08:05:07;;;;;;;11.95;9.73;;;;;;;4.84;67.73;100273.50;5019549;28;20050;-63
2021/01/04 08:08:04;;;;;;;10.93;9.00;;;;;;;4.85;67.38;100264.94;5019060;28;20430;-63
2021/01/04 08:10:51;;;;;;;11.07;9.10;;;;;;;4.88;67.50;100272.63;5027209;28;20065;-63
2021/01/04 08:13:58;;;;;;;12.77;9.73;;;;;;;4.91;67.63;100275.94;5027678;28;20509;-63
2021/01/04 08:16:27;;;;;;;11.38;9.35;;;;;;;4.89;68.07;100276.22;5026845;28;20057;-63
2021/01/04 08:18:56;;;;;;;10.23;8.55;;;;;;;4.94;67.57;100283.69;5025235;28;20057;-63
2021/01/04 08:21:33;;;;;;;10.75;9.18;;;;;;;4.98;67.35;100284.78;5027520;28;20054;-63
2021/01/04 08:24:06;;;;;;;10.10;8.32;;;;;;;4.94;67.00;100283.69;5028918;28;20072;-63
2021/01/04 08:26:48;;;;;;;10.50;8.43;;;;;;;4.97;67.20;100285.84;5025139;28;20068;-63
2021/01/04 08:29:20;;;;;;;9.73;8.32;;;;;;;4.97;67.19;100283.09;5028179;28;20061;-63
2021/01/04 08:31:59;;;;;;;9.98;8.20;;;;;;;4.99;66.96;100289.97;5029711;28;20050;-63
2021/01/04 08:34:37;;;;;;;10.40;7.75;;;;;;;5.01;67.06;100286.94;5027213;28;20045;-63
2021/01/04 08:37:05;;;;;;;9.48;8.10;;;;;;;5.00;66.68;100290.84;5023770;28;20387;-63
2021/01/04 08:39:38;;;;;;;9.27;8.05;;;;;;;4.98;67.04;100282.00;5028936;28;20064;-63
2021/01/04 08:42:25;;;;;;;9.18;7.85;;;;;;;5.01;66.66;100295.22;5022190;28;20386;-63
2021/01/04 08:44:56;;;;;;;9.82;7.93;;;;;;;5.01;67.18;100289.72;5023199;28;20052;-63
2021/01/04 08:47:32;;;;;;;10.15;8.25;;;;;;;4.95;66.81;100299.13;5027120;28;20062;-62
2021/01/04 08:50:32;;;;;;;9.48;7.82;;;;;;;4.96;66.90;100292.50;5025111;28;20049;-62
2021/01/04 08:53:12;;;;;;;12.48;8.90;;;;;;;4.97;66.96;100297.72;5024876;28;20054;-63
2021/01/04 08:55:39;;;;;;;11.70;9.38;;;;;;;4.99;66.57;100291.94;5029352;28;20046;-63
2021/01/04 08:58:25;;;;;;;12.52;9.50;;;;;;;4.99;66.90;100295.50;5033781;28;20061;-62
2021/01/04 09:01:00;;;;;;;9.95;8.35;;;;;;;4.98;67.11;100298.56;5023879;28;20057;-62
2021/01/04 09:03:30;;;;;;;9.30;7.28;;;;;;;4.95;67.02;100294.41;5032861;28;20049;-63
2021/01/04 09:06:09;;;;;;;8.27;7.43;;;;;;;4.97;66.52;100297.72;5022655;28;20049;-62
2021/01/04 09:08:36;;;;;;;9.95;7.57;;;;;;;4.91;66.69;100303.53;5032640;28;20061;-62
2021/01/04 09:11:06;;;;;;;9.90;7.55;;;;;;;4.94;66.96;100303.81;5025835;28;20057;-62
2021/01/04 09:13:36;;;;;;;9.02;7.40;;;;;;;4.91;66.74;100306.31;5029717;28;20492;-62
2021/01/04 09:16:09;;;;;;;;;;;;;;;4.94;67.05;100306.56;5032888;28;20378;-62
2021/01/04 09:18:39;;;;;;;9.27;7.70;;;;;;;4.99;66.56;100305.72;5031734;28;19932;-62
2021/01/04 09:21:11;;;;;;;8.85;6.70;;;;;;;4.97;66.28;100310.69;5029026;28;20134;-62
2021/01/04 09:23:40;;;;;;;8.75;7.30;;;;;;;4.97;66.90;100308.75;5030038;28;20521;-62
2021/01/04 09:26:14;;;;;;;11.95;9.00;;;;;;;4.98;66.79;100317.88;5025746;28;20049;-62
2021/01/04 09:28:44;;;;;;;9.43;8.05;;;;;;;4.94;66.70;100317.63;5027614;28;20057;-62
2021/01/04 09:31:15;;;;;;;9.30;7.13;;;;;;;4.99;66.69;100308.47;5032840;28;20064;-61
2021/01/04 09:33:47;;;;;;;10.75;7.82;;;;;;;5.03;66.39;100310.41;5027640;28;20399;-62
2021/01/04 09:36:15;;;;;;;10.73;8.23;;;;;;;5.02;66.63;100310.69;5024162;28;20054;-62
2021/01/04 09:38:43;;;;;;;7.82;7.03;;;;;;;5.00;66.52;100299.94;5024933;28;20045;-62
2021/01/04 09:41:13;;;;;;;10.63;8.68;;;;;;;5.01;66.31;100298.81;5031972;28;20060;-62
2021/01/04 09:43:42;;;;;;;9.75;7.47;;;;;;;5.08;66.19;100301.25;5030757;28;20060;-62
2021/01/04 09:46:21;;;;;;;7.70;6.63;;;;;;;5.11;66.04;100300.72;5029500;28;20060;-62
2021/01/04 09:48:55;;;;;;;8.00;6.50;;;;;;;5.10;65.40;100299.03;5031224;28;20046;-61
2021/01/04 09:51:32;;;;;;;7.93;6.70;;;;;;;5.13;65.84;100298.50;5025535;28;20058;-62
2021/01/04 09:54:01;;;;;;;10.20;8.57;;;;;;;5.16;65.74;100303.44;5032671;28;20057;-63
2021/01/04 09:56:31;;;;;;;7.70;6.63;;;;;;;5.17;65.96;100305.09;5029980;28;20053;-62
2021/01/04 09:59:05;;;;;;;8.15;6.55;;;;;;;5.25;65.31;100303.72;5028196;28;20099;-63
2021/01/04 10:01:42;;;;;;;7.95;6.25;;;;;;;5.27;65.32;100307.84;5028463;28;20053;-62
2021/01/04 10:04:09;;;;;;;7.78;6.65;;;;;;;5.19;65.40;100308.41;5030569;28;20069;-62
2021/01/04 10:06:39;;;;;;;7.35;6.32;;;;;;;5.23;65.41;100314.22;5029116;28;20066;-62
2021/01/04 10:09:13;;;;;;;8.15;6.47;;;;;;;5.26;65.46;100308.94;5025949;28;20493;-62
2021/01/04 10:11:40;;;;;;;7.32;6.18;;;;;;;5.27;65.12;100305.06;5029389;28;20064;-62
2021/01/04 10:14:13;;;;;;;8.07;6.93;;;;;;;5.25;65.21;100315.56;5028859;28;20068;-62
2021/01/04 10:16:43;;;;;;;7.82;6.28;;;;;;;5.19;65.66;100305.66;5032019;28;20049;-62
2021/01/04 10:19:56;;;;;;;8.40;6.70;;;;;;;5.29;65.31;100302.84;5025590;28;20049;-62
2021/01/04 10:26:06;;;;;;;7.30;6.05;;;;;;;5.33;65.45;100308.63;3877787;28;21178;-78
2021/01/04 10:28:35;;;;;;;8.32;6.63;;;;;;;5.32;65.20;100297.88;4849110;28;20068;-81
2021/01/04 10:31:10;;;;;;;7.10;6.40;;;;;;;5.36;65.04;100301.72;5026359;28;20061;-77
2021/01/04 10:33:39;;;;;;;7.15;6.45;;;;;;;5.39;65.37;100301.97;5027968;28;21207;-77
2021/01/04 10:36:10;;;;;;;6.78;6.05;;;;;;;5.48;65.20;100296.66;5023720;28;20042;-77
2021/01/04 10:38:39;;;;;;;7.50;6.25;;;;;;;5.53;64.67;100284.78;5036725;28;20053;-77
2021/01/04 10:41:11;;;;;;;8.35;6.88;;;;;;;5.60;64.75;100294.38;5026854;28;20056;-77
2021/01/04 10:43:38;;;;;;;8.75;7.10;;;;;;;5.64;64.66;100291.88;5029309;28;20053;-77
2021/01/04 10:46:37;;;;;;;7.50;6.55;;;;;;;5.73;64.78;100289.34;5036860;28;20053;-78
2021/01/04 10:49:07;;;;;;;8.30;6.93;;;;;;;5.80;64.54;100287.09;5049543;28;20057;-78
2021/01/04 10:51:36;;;;;;;7.68;6.32;;;;;;;5.84;64.75;100285.41;5045686;28;20521;-78
2021/01/04 10:54:14;;;;;;;8.32;7.03;;;;;;;5.92;65.06;100286.72;5051815;28;20490;-78
2021/01/04 10:56:56;;;;;;;7.30;6.03;;;;;;;5.95;64.38;100289.75;5052246;28;20052;-78
2021/01/04 10:59:32;;;;;;;9.10;6.25;;;;;;;5.92;63.69;100282.00;5052594;28;20060;-79
2021/01/04 11:02:02;;;;;;;7.20;6.35;;;;;;;5.92;64.18;100284.75;5051609;28;20060;-79
2021/01/04 11:04:31;;;;;;;7.03;6.32;;;;;;;5.95;64.51;100287.00;5052972;28;20482;-79
2021/01/04 11:07:17;;;;;;;7.78;6.15;;;;;;;5.94;64.15;100277.00;5052679;28;20056;-77
2021/01/04 11:13:39;;;;;;;10.48;6.35;;;;;;;5.84;63.99;100279.88;5057313;28;20730;-77
2021/01/04 11:16:10;;;;;;;8.73;6.63;;;;;;;5.88;64.17;100284.53;5053037;28;20508;-77
2021/01/04 11:18:53;;;;;;;8.88;7.22;;;;;;;5.83;63.72;100267.16;5050130;28;20060;-78
2021/01/04 11:21:21;;;;;;;8.45;6.15;;;;;;;5.85;63.77;100276.00;5051323;28;20056;-78
2021/01/04 11:23:48;;;;;;;8.50;6.30;;;;;;;5.89;63.53;100268.78;5052714;28;20045;-78
2021/01/04 11:26:15;;;;;;;8.63;6.97;;;;;;;5.93;63.95;100261.56;5051499;28;20409;-78
2021/01/04 11:28:43;;;;;;;8.60;7.25;;;;;;;5.98;63.89;100264.28;5051190;28;20051;-78
2021/01/04 11:31:10;;;;;;;8.75;6.97;;;;;;;6.03;63.68;100260.69;5053040;28;20061;-80
2021/01/04 11:33:37;;;;;;;7.80;6.53;;;;;;;6.06;63.42;100255.38;5053672;28;20056;-78
2021/01/04 11:36:06;;;;;;;11.25;7.55;;;;;;;6.10;63.54;100259.22;5052702;28;20049;-78
2021/01/04 11:38:33;;;;;;;9.98;6.47;;;;;;;6.10;63.67;100258.41;5049820;28;20056;-79
2021/01/04 11:41:02;;;;;;;9.20;6.97;;;;;;;6.15;63.48;100257.53;5050796;28;20478;-79
2021/01/04 11:43:29;;;;;;;9.50;6.70;;;;;;;6.18;63.00;100252.25;5051361;28;20049;-78
2021/01/04 11:45:56;;;;;;;7.75;6.10;;;;;;;6.21;62.85;100251.66;5052715;28;20049;-78
2021/01/04 11:48:24;;;;;;;9.00;6.97;;;;;;;6.27;62.83;100249.66;5055278;28;20056;-78
2021/01/04 11:50:51;;;;;;;9.35;6.68;;;;;;;6.31;62.99;100242.44;5053796;28;20044;-78
2021/01/04 11:53:19;;;;;;;8.82;6.97;;;;;;;6.32;62.03;100240.50;5051716;28;20406;-78
2021/01/04 11:55:48;;;;;;;10.63;7.35;;;;;;;6.29;62.33;100244.69;5051875;28;20429;-78
2021/01/04 11:58:15;;;;;;;8.50;6.82;;;;;;;6.29;62.10;100239.97;5052128;28;20393;-78
2021/01/04 12:00:42;;;;;;;8.32;6.88;;;;;;;6.32;62.47;100241.34;5052805;28;20061;-78
2021/01/04 12:03:09;;;;;;;9.63;7.53;;;;;;;6.38;62.35;100236.56;5052782;28;20049;-78
2021/01/04 12:05:39;;;;;;;9.65;6.95;;;;;;;6.41;62.47;100231.28;5058513;28;20057;-77
2021/01/04 12:08:06;;;;;;;10.05;7.47;;;;;;;6.32;62.65;100229.44;5052282;28;20060;-78
2021/01/04 12:10:37;;;;;;;9.85;7.85;;;;;;;6.44;62.68;100232.63;5050448;28;20541;-78
2021/01/04 12:13:06;;;;;;;10.30;7.82;;;;;;;6.43;63.02;100223.50;5049660;28;20124;-79
2021/01/04 12:16:23;;;;;;;9.02;7.07;;;;;;;6.51;62.05;100227.59;5052515;28;20052;-77
2021/01/04 12:19:06;;;;;;;8.18;7.25;;;;;;;6.45;62.56;100231.53;5050657;28;20084;-74
2021/01/04 12:21:41;;;;;;;10.25;8.00;;;;;;;6.51;62.77;100216.53;5056679;28;20382;-77